Time;durP1;ratioP1;P1;durP2;ratioP2;P2;SDS_P1;SDS_P2;PMS_P1;PMS_P2;Temp;Humidity;BMP_temperature;BMP_pressure;BME280_temperature;BME280_humidity;BME280_pressure;Samples;Min_cycle;Max_cycle;Signal;HPM_P1;HPM_P2
2022/04/13 00:01:21;;;;;;;38.13;20.50;;;6.80;86.10;;;;;;5038745;28;20228;-59
2022/04/13 00:04:13;;;;;;;39.80;21.07;;;6.80;87.70;;;;;;5030026;28;20250;-59
2022/04/13 00:07:02;;;;;;;48.60;21.93;;;6.80;89.10;;;;;;5038388;28;20233;-59
2022/04/13 00:09:51;;;;;;;42.50;22.87;;;6.80;89.90;;;;;;5033674;28;20307;-59
2022/04/13 00:12:40;;;;;;;47.27;23.70;;;6.80;90.40;;;;;;5040917;28;20248;-59
2022/04/13 00:15:30;;;;;;;51.30;23.80;;;6.80;90.50;;;;;;5035798;28;20233;-59
2022/04/13 00:18:20;;;;;;;49.90;24.80;;;6.80;90.90;;;;;;5036326;28;20234;-58
2022/04/13 00:21:08;;;;;;;48.07;26.00;;;6.70;91.50;;;;;;5039462;28;20244;-58
2022/04/13 00:23:57;;;;;;;50.87;27.67;;;6.70;91.60;;;;;;5036375;28;20918;-58
2022/04/13 00:26:46;;;;;;;49.73;27.10;;;6.60;92.20;;;;;;5045501;28;20398;-58
2022/04/13 00:29:34;;;;;;;51.10;26.80;;;6.60;92.50;;;;;;5047313;28;20225;-58
2022/04/13 00:32:25;;;;;;;51.80;26.67;;;6.60;93.00;;;;;;5033378;28;20804;-57
2022/04/13 00:35:14;;;;;;;52.13;27.57;;;6.60;93.20;;;;;;5037812;28;20221;-57
2022/04/13 00:38:02;;;;;;;49.10;26.03;;;6.50;93.80;;;;;;5036799;28;20220;-54
2022/04/13 00:40:51;;;;;;;44.53;23.50;;;6.50;94.20;;;;;;5038597;28;20221;-59
2022/04/13 00:43:39;;;;;;;45.80;23.47;;;6.50;93.60;;;;;;5034017;28;20217;-59
2022/04/13 00:46:28;;;;;;;43.97;22.27;;;6.60;93.60;;;;;;5039017;28;20231;-57
2022/04/13 00:49:18;;;;;;;41.40;22.10;;;6.60;93.30;;;;;;5047474;28;20237;-59
2022/04/13 00:52:08;;;;;;;42.73;21.13;;;6.60;93.20;;;;;;5049896;28;20224;-60
2022/04/13 00:54:58;;;;;;;40.37;21.60;;;6.50;93.10;;;;;;5048537;28;20252;-59
2022/04/13 00:57:48;;;;;;;40.10;21.23;;;6.60;93.30;;;;;;5033549;28;20232;-56
2022/04/13 01:00:38;;;;;;;43.07;20.90;;;6.50;93.50;;;;;;5030173;28;20229;-58
2022/04/13 01:03:27;;;;;;;35.27;20.53;;;6.50;93.50;;;;;;5032789;28;20228;-57
2022/04/13 01:06:18;;;;;;;41.77;21.23;;;6.40;93.40;;;;;;5042861;28;20232;-60
2022/04/13 01:09:07;;;;;;;40.37;21.47;;;6.40;93.60;;;;;;5036133;28;20228;-59
2022/04/13 01:11:56;;;;;;;37.30;19.97;;;6.50;93.40;;;;;;5034097;28;20217;-58
2022/04/13 01:14:44;;;;;;;34.53;19.77;;;6.50;93.50;;;;;;5047297;28;20240;-59
2022/04/13 01:17:34;;;;;;;36.97;19.53;;;6.50;93.70;;;;;;5035880;28;20228;-58
2022/04/13 01:20:23;;;;;;;36.97;19.40;;;6.50;93.40;;;;;;5038288;28;20215;-58
2022/04/13 01:23:13;;;;;;;39.30;19.87;;;6.50;93.30;;;;;;5037382;28;20209;-59
2022/04/13 01:26:02;;;;;;;37.03;19.90;;;6.50;93.20;;;;;;5048634;28;20394;-58
2022/04/13 01:28:54;;;;;;;39.27;19.77;;;6.50;93.50;;;;;;5032679;28;20221;-58
2022/04/13 01:31:42;;;;;;;33.33;19.33;;;6.40;93.70;;;;;;5036388;28;20248;-58
2022/04/13 01:34:31;;;;;;;35.73;20.47;;;6.30;94.30;;;;;;5037385;28;20268;-59
2022/04/13 01:37:20;;;;;;;41.40;21.27;;;6.40;94.30;;;;;;5032208;28;20315;-59
2022/04/13 01:40:11;;;;;;;37.67;19.77;;;6.40;94.60;;;;;;5047711;28;20565;-58
2022/04/13 01:43:00;;;;;;;37.17;20.80;;;6.40;94.50;;;;;;5037140;28;20240;-59
2022/04/13 01:45:50;;;;;;;38.50;20.53;;;6.40;94.40;;;;;;5033674;28;20225;-59
2022/04/13 01:48:38;;;;;;;37.10;20.07;;;6.20;94.70;;;;;;5030430;28;20228;-59
2022/04/13 01:51:27;;;;;;;37.00;20.07;;;6.30;94.90;;;;;;5036616;28;20222;-59
2022/04/13 01:54:15;;;;;;;37.77;20.03;;;6.30;95.00;;;;;;5034400;28;20631;-59
2022/04/13 01:57:05;;;;;;;38.13;20.17;;;6.20;95.30;;;;;;5034558;28;20220;-59
2022/04/13 01:59:54;;;;;;;38.17;20.13;;;6.20;95.90;;;;;;5046394;28;20220;-59
2022/04/13 02:02:42;;;;;;;37.53;20.33;;;6.20;96.30;;;;;;5033698;28;20264;-59
2022/04/13 02:05:31;;;;;;;39.20;21.67;;;6.20;96.60;;;;;;5032520;28;20233;-58
2022/04/13 02:08:20;;;;;;;40.93;21.27;;;6.10;97.20;;;;;;5035513;28;20240;-59
2022/04/13 02:11:09;;;;;;;42.93;22.83;;;6.20;97.30;;;;;;5034364;28;20227;-58
2022/04/13 02:14:02;;;;;;;38.87;20.83;;;6.20;97.40;;;;;;5045567;28;20217;-58
2022/04/13 02:16:51;;;;;;;44.00;20.10;;;6.20;97.90;;;;;;5031085;28;21058;-60
2022/04/13 02:19:39;;;;;;;36.50;20.60;;;6.10;98.10;;;;;;5033731;28;20311;-59
2022/04/13 02:22:28;;;;;;;40.60;20.90;;;6.00;98.60;;;;;;5032439;28;20240;-59
2022/04/13 02:25:38;;;;;;;39.20;19.60;;;6.10;98.60;;;;;;5033132;28;20217;-58
2022/04/13 02:28:26;;;;;;;35.47;19.73;;;6.10;98.50;;;;;;5030903;28;20220;-59
2022/04/13 02:31:16;;;;;;;38.10;20.20;;;6.10;98.90;;;;;;5033831;28;20217;-58
2022/04/13 02:34:05;;;;;;;35.57;19.70;;;6.10;98.70;;;;;;5036904;28;20687;-59
2022/04/13 02:36:54;;;;;;;43.50;20.73;;;6.10;99.00;;;;;;5045420;28;20221;-59
2022/04/13 02:39:46;;;;;;;39.03;18.90;;;6.10;99.10;;;;;;5025979;28;20228;-59
2022/04/13 02:42:35;;;;;;;33.03;19.73;;;6.00;99.20;;;;;;5037530;28;20727;-59
2022/04/13 02:45:27;;;;;;;41.47;21.17;;;6.00;99.50;;;;;;5027805;28;20732;-58
2022/04/13 02:48:18;;;;;;;42.50;21.20;;;6.00;99.90;;;;;;5044690;28;20216;-59
2022/04/13 02:51:06;;;;;;;39.03;20.87;;;6.00;99.90;;;;;;5033279;28;20230;-58
2022/04/13 02:53:55;;;;;;;39.13;20.40;;;5.90;99.90;;;;;;5037976;28;20229;-58
2022/04/13 02:56:43;;;;;;;38.50;21.37;;;5.90;99.90;;;;;;5036316;28;26204;-59
2022/04/13 02:59:35;;;;;;;40.60;21.00;;;5.90;99.90;;;;;;5037338;28;20232;-59
2022/04/13 03:02:29;;;;;;;40.63;20.93;;;6.00;99.90;;;;;;5036169;28;20226;-58
2022/04/13 03:05:19;;;;;;;45.47;22.13;;;5.90;99.90;;;;;;5004177;28;20767;-59
2022/04/13 03:08:08;;;;;;;41.00;23.37;;;5.90;99.90;;;;;;5018169;28;20310;-60
2022/04/13 03:10:57;;;;;;;41.10;22.00;;;5.90;99.90;;;;;;5012509;28;20229;-56
2022/04/13 03:13:46;;;;;;;43.70;23.33;;;5.90;99.90;;;;;;5018317;28;20403;-59
2022/04/13 03:16:35;;;;;;;46.97;23.83;;;5.80;99.90;;;;;;5018419;28;20226;-58
2022/04/13 03:19:27;;;;;;;43.37;23.70;;;5.80;99.90;;;;;;5018027;28;20221;-60
2022/04/13 03:22:17;;;;;;;41.00;22.67;;;5.80;99.90;;;;;;5007578;28;20218;-58
2022/04/13 03:25:06;;;;;;;47.40;24.37;;;5.70;99.90;;;;;;5019833;28;20288;-60
2022/04/13 03:27:55;;;;;;;47.70;25.43;;;5.70;99.90;;;;;;5017321;28;20305;-59
2022/04/13 03:30:44;;;;;;;49.27;24.23;;;5.70;99.90;;;;;;5020249;28;20280;-58
2022/04/13 03:33:33;;;;;;;49.07;23.90;;;5.70;99.90;;;;;;5017356;28;20245;-59
2022/04/13 03:36:21;;;;;;;51.60;24.30;;;5.60;99.90;;;;;;5011242;28;20218;-59
2022/04/13 03:39:12;;;;;;;51.33;24.90;;;5.60;99.90;;;;;;5023691;28;20224;-60
2022/04/13 03:42:00;;;;;;;50.50;24.37;;;5.60;99.90;;;;;;5018680;28;20697;-58
2022/04/13 03:44:49;;;;;;;46.50;25.63;;;5.60;99.90;;;;;;5016741;28;20218;-60
2022/04/13 03:47:38;;;;;;;54.57;26.53;;;5.50;99.90;;;;;;5001740;28;20325;-57
2022/04/13 03:50:26;;;;;;;55.83;27.43;;;5.50;99.90;;;;;;5000210;28;20229;-60
2022/04/13 03:53:15;;;;;;;56.77;29.23;;;5.50;99.90;;;;;;5012197;28;20366;-60
2022/04/13 03:56:05;;;;;;;50.87;28.23;;;5.50;99.90;;;;;;5001652;28;20257;-59
2022/04/13 03:58:54;;;;;;;56.83;29.13;;;5.40;99.90;;;;;;5018099;28;20263;-58
2022/04/13 04:01:43;;;;;;;50.40;29.03;;;5.40;99.90;;;;;;5008408;28;20380;-58
2022/04/13 04:04:31;;;;;;;60.67;29.47;;;5.40;99.90;;;;;;5035775;28;20241;-60
2022/04/13 04:07:20;;;;;;;58.90;30.33;;;5.40;99.90;;;;;;5042207;28;20847;-58
2022/04/13 04:10:10;;;;;;;52.77;28.53;;;5.30;99.90;;;;;;5049214;28;20243;-59
2022/04/13 04:13:00;;;;;;;53.87;29.80;;;5.30;99.90;;;;;;5036049;28;20230;-58
2022/04/13 04:15:50;;;;;;;56.70;30.10;;;5.20;99.90;;;;;;5043842;28;20225;-58
2022/04/13 04:18:38;;;;;;;51.73;28.17;;;5.20;99.90;;;;;;5040628;28;20224;-59
2022/04/13 04:21:27;;;;;;;53.40;28.60;;;5.30;99.90;;;;;;5056308;28;20225;-59
2022/04/13 04:24:15;;;;;;;53.77;28.83;;;5.30;99.90;;;;;;5035208;28;20229;-59
2022/04/13 04:27:04;;;;;;;55.83;29.27;;;5.30;99.90;;;;;;5036626;28;20221;-58
2022/04/13 04:29:54;;;;;;;58.40;29.43;;;5.40;99.90;;;;;;5037295;28;20323;-59
2022/04/13 04:32:43;;;;;;;56.13;30.53;;;5.40;99.90;;;;;;5036756;28;20848;-59
2022/04/13 04:35:35;;;;;;;58.70;31.30;;;5.40;99.90;;;;;;5037356;28;20225;-61
2022/04/13 04:38:26;;;;;;;57.37;30.73;;;5.40;99.90;;;;;;5046935;28;20221;-59
2022/04/13 04:41:15;;;;;;;57.17;31.90;;;5.50;99.90;;;;;;5043248;28;20553;-60
2022/04/13 04:44:04;;;;;;;56.37;30.37;;;5.60;99.90;;;;;;5039323;28;20225;-60
2022/04/13 04:46:54;;;;;;;59.57;31.83;;;5.60;99.90;;;;;;5042313;28;20223;-57
2022/04/13 04:49:43;;;;;;;64.13;32.50;;;5.60;99.90;;;;;;5037819;28;20726;-59
2022/04/13 04:52:32;;;;;;;62.83;32.73;;;5.70;99.90;;;;;;5032222;28;20221;-60
2022/04/13 04:55:21;;;;;;;73.93;34.53;;;5.60;99.90;;;;;;5032488;28;20243;-59
2022/04/13 04:58:10;;;;;;;64.43;33.63;;;5.60;99.90;;;;;;5038520;28;20663;-62
2022/04/13 05:00:58;;;;;;;61.37;33.83;;;5.40;99.90;;;;;;5035370;28;20235;-60
2022/04/13 05:03:49;;;;;;;61.77;33.20;;;5.70;99.90;;;;;;5023158;28;20226;-59
2022/04/13 05:06:38;;;;;;;58.10;30.90;;;5.70;99.90;;;;;;5007577;28;20720;-59
2022/04/13 05:09:28;;;;;;;56.90;30.70;;;5.80;99.90;;;;;;5015780;28;20237;-59
2022/04/13 05:12:23;;;;;;;57.07;31.33;;;5.70;99.90;;;;;;5016693;28;20403;-60
2022/04/13 05:15:12;;;;;;;60.90;32.70;;;5.80;99.90;;;;;;5016875;28;20234;-59
2022/04/13 05:18:01;;;;;;;58.93;31.60;;;5.80;99.90;;;;;;5020301;28;20909;-57
2022/04/13 05:20:53;;;;;;;60.13;31.97;;;5.90;99.90;;;;;;5021182;28;20230;-58
2022/04/13 05:23:45;;;;;;;58.87;32.83;;;6.00;99.90;;;;;;5016735;28;20305;-58
2022/04/13 05:26:34;;;;;;;58.60;30.80;;;6.10;99.90;;;;;;5024552;28;20221;-58
2022/04/13 05:29:22;;;;;;;62.97;32.53;;;6.20;99.90;;;;;;5014300;28;20241;-58
2022/04/13 05:32:13;;;;;;;58.70;33.17;;;6.40;99.90;;;;;;5017385;28;20305;-59
2022/04/13 05:35:03;;;;;;;66.67;32.40;;;6.50;99.90;;;;;;5011629;28;20245;-57
2022/04/13 05:37:53;;;;;;;58.17;32.20;;;7.00;99.90;;;;;;5016466;28;20304;-58
2022/04/13 05:40:42;;;;;;;57.53;31.10;;;7.70;99.90;;;;;;5014757;28;20213;-59
2022/04/13 05:43:33;;;;;;;60.83;31.98;;;8.00;99.90;;;;;;5003862;28;20413;-59
2022/04/13 05:46:21;;;;;;;58.25;33.33;;;8.00;99.90;;;;;;5012784;28;20307;-58
2022/04/13 05:49:10;;;;;;;57.78;32.40;;;8.00;99.90;;;;;;5012777;28;20739;-59
2022/04/13 05:51:59;;;;;;;50.60;31.23;;;7.90;99.90;;;;;;5016986;28;20226;-58
2022/04/13 05:54:49;;;;;;;54.90;31.03;;;7.80;99.90;;;;;;5013314;28;20248;-60
2022/04/13 05:57:38;;;;;;;56.23;31.47;;;7.60;99.90;;;;;;5016107;28;20280;-59
2022/04/13 06:00:27;;;;;;;63.77;31.77;;;7.60;99.90;;;;;;5019431;28;20222;-57
2022/04/13 06:03:17;;;;;;;54.03;31.53;;;7.90;99.90;;;;;;5012322;28;20234;-60
2022/04/13 06:06:28;;;;;;;52.42;30.58;;;8.60;99.90;;;;;;5025207;28;20216;-60
2022/04/13 06:09:17;;;;;;;57.28;32.10;;;9.20;99.90;;;;;;5023765;28;20241;-59
2022/04/13 06:12:08;;;;;;;54.05;30.88;;;9.40;99.90;;;;;;5019197;28;20221;-57
2022/04/13 06:15:01;;;;;;;48.35;29.85;;;9.40;99.90;;;;;;5011489;28;20332;-60
2022/04/13 06:17:50;;;;;;;50.40;29.30;;;9.20;99.90;;;;;;5000448;28;20226;-61
2022/04/13 06:20:38;;;;;;;52.88;29.67;;;9.20;99.90;;;;;;5020165;28;20352;-60
2022/04/13 06:23:32;;;;;;;47.55;30.67;;;9.10;99.90;;;;;;5003530;28;20228;-64
2022/04/13 06:26:21;;;;;;;55.63;30.73;;;9.00;99.90;;;;;;5026095;28;20702;-62
2022/04/13 06:29:11;;;;;;;63.35;31.05;;;9.10;99.90;;;;;;5015958;28;20229;-61
2022/04/13 07:59:04;;;;;;;13.70;8.93;;;21.00;50.80;;;;;;4964532;28;21003;-61
2022/04/13 08:01:53;;;;;;;8.95;5.25;;;21.50;51.50;;;;;;4976551;28;20259;-62
2022/04/13 08:04:42;;;;;;;8.63;6.18;;;22.00;48.20;;;;;;4960407;28;20795;-62
2022/04/13 08:07:31;;;;;;;8.75;6.10;;;21.10;47.50;;;;;;4955302;28;20695;-62
2022/04/13 08:10:19;;;;;;;10.68;6.78;;;19.90;49.30;;;;;;4980520;28;20219;-58
2022/04/13 08:13:08;;;;;;;12.68;6.63;;;20.30;49.70;;;;;;4969123;28;20222;-58
2022/04/13 08:15:58;;;;;;;10.68;6.00;;;20.80;48.50;;;;;;4972866;28;20232;-58
2022/04/13 08:18:47;;;;;;;11.48;6.18;;;23.00;46.40;;;;;;4962893;28;20231;-60
2022/04/13 08:21:38;;;;;;;10.77;6.97;;;24.20;45.00;;;;;;4960347;28;20234;-60
2022/04/13 08:24:26;;;;;;;11.95;5.80;;;24.00;44.50;;;;;;4960068;28;20226;-59
2022/04/13 08:27:15;;;;;;;9.52;5.68;;;24.30;44.10;;;;;;4984225;28;20231;-58
2022/04/13 08:30:05;;;;;;;11.23;6.55;;;25.50;42.60;;;;;;4956247;28;20219;-59
2022/04/13 08:32:55;;;;;;;12.20;6.60;;;26.30;41.70;;;;;;4962261;28;20266;-59
2022/04/13 08:35:44;;;;;;;9.50;6.30;;;26.60;40.10;;;;;;4956170;28;20723;-56
2022/04/13 08:38:33;;;;;;;12.52;6.90;;;25.80;40.50;;;;;;4958327;28;20724;-58
2022/04/13 08:41:32;;;;;;;7.93;5.82;;;26.90;39.90;;;;;;4960698;28;20219;-60
2022/04/13 08:44:28;;;;;;;9.40;5.75;;;27.30;39.50;;;;;;4955635;28;20231;-60
2022/04/13 08:47:19;;;;;;;10.70;6.15;;;26.90;38.40;;;;;;4968925;28;20217;-59
2022/04/13 08:50:11;;;;;;;8.98;5.30;;;26.90;39.00;;;;;;4957552;28;20231;-60
2022/04/13 08:53:02;;;;;;;8.45;4.93;;;26.40;39.10;;;;;;4963759;28;20235;-60
2022/04/13 08:55:54;;;;;;;7.03;4.97;;;27.30;38.10;;;;;;4937211;28;20245;-59
2022/04/13 08:58:51;;;;;;;12.38;6.65;;;27.30;37.60;;;;;;4955371;28;20663;-61
2022/04/13 09:01:55;;;;;;;8.07;6.22;;;28.20;36.40;;;;;;4955675;28;20677;-62
2022/04/13 09:04:47;;;;;;;11.65;7.03;;;28.30;36.70;;;;;;4955147;28;20219;-61
2022/04/13 09:07:40;;;;;;;13.18;8.05;;;27.00;38.00;;;;;;4955991;28;20223;-62
2022/04/13 09:10:29;;;;;;;10.27;7.78;;;27.80;36.80;;;;;;4947736;28;20230;-65
2022/04/13 09:13:20;;;;;;;13.73;7.50;;;28.40;36.70;;;;;;4946218;28;20232;-63
2022/04/13 09:16:10;;;;;;;8.98;6.38;;;27.40;37.40;;;;;;4943658;28;20888;-65
2022/04/13 09:18:59;;;;;;;10.20;6.32;;;27.00;37.10;;;;;;4945499;28;20221;-66
2022/04/13 09:21:49;;;;;;;17.67;6.72;;;23.20;38.50;;;;;;4959240;28;20897;-65
2022/04/13 09:24:40;;;;;;;10.75;7.00;;;21.20;42.00;;;;;;4948983;28;20228;-65
2022/04/13 09:27:29;;;;;;;9.82;6.05;;;20.20;43.20;;;;;;4941318;28;20236;-61
2022/04/13 09:30:21;;;;;;;8.68;6.40;;;18.80;44.60;;;;;;4943430;28;20870;-61
2022/04/13 09:33:13;;;;;;;10.15;5.80;;;17.90;47.60;;;;;;4944977;28;20227;-62
2022/04/13 09:36:02;;;;;;;10.43;5.72;;;18.70;46.80;;;;;;4949905;28;20306;-59
2022/04/13 09:38:56;;;;;;;8.98;6.03;;;20.20;44.20;;;;;;4942871;28;20777;-59
2022/04/13 09:41:46;;;;;;;9.02;5.70;;;21.90;43.20;;;;;;4938203;28;20228;-62
2022/04/13 09:44:35;;;;;;;7.25;5.63;;;22.90;41.60;;;;;;4941526;28;20247;-60
2022/04/13 09:47:30;;;;;;;7.72;5.43;;;23.20;39.50;;;;;;4943213;28;20221;-63
2022/04/13 09:50:25;;;;;;;16.05;7.18;;;22.80;40.10;;;;;;4934241;28;20267;-62
2022/04/13 09:53:16;;;;;;;15.63;8.07;;;24.50;40.60;;;;;;4940294;28;20322;-76
2022/04/13 09:56:06;;;;;;;11.55;7.25;;;23.40;40.80;;;;;;4975400;28;20741;-69
2022/04/13 09:58:55;;;;;;;8.43;6.57;;;22.60;40.70;;;;;;4923202;28;20240;-66
2022/04/13 10:01:48;;;;;;;8.80;6.75;;;22.00;40.70;;;;;;4945616;28;20232;-65
2022/04/13 10:04:37;;;;;;;9.73;8.00;;;21.00;41.70;;;;;;4953114;28;20224;-64
2022/04/13 10:07:26;;;;;;;9.70;6.80;;;;;;;;;;4947308;28;20239;-57
2022/04/13 10:10:24;;;;;;;7.85;5.90;;;21.40;44.60;;;;;;4951208;28;20329;-57
2022/04/13 10:13:31;;;;;;;8.82;6.00;;;20.40;42.90;;;;;;4945394;28;20576;-65
2022/04/13 10:16:22;;;;;;;7.10;5.97;;;20.90;41.60;;;;;;4948439;28;20231;-60
2022/04/13 10:19:11;;;;;;;8.18;5.93;;;20.50;41.70;;;;;;4970598;28;20619;-57
2022/04/13 10:21:59;;;;;;;8.15;6.25;;;19.60;42.80;;;;;;4954351;28;20232;-59
2022/04/13 10:24:48;;;;;;;9.45;6.13;;;18.60;44.30;;;;;;4953003;28;20901;-61
2022/04/13 10:27:37;;;;;;;11.60;6.75;;;17.60;46.00;;;;;;4944921;28;20247;-63
2022/04/13 10:30:30;;;;;;;9.77;6.63;;;17.50;47.60;;;;;;4947662;28;20220;-64
2022/04/13 10:33:20;;;;;;;13.32;6.53;;;17.40;47.40;;;;;;4953591;28;20300;-63
2022/04/13 10:36:09;;;;;;;16.92;8.05;;;17.10;48.80;;;;;;4970219;28;20225;-63
2022/04/13 10:38:57;;;;;;;10.80;7.00;;;17.30;48.60;;;;;;4940473;28;20226;-62
2022/04/13 10:41:48;;;;;;;13.75;7.18;;;16.50;49.30;;;;;;4945780;28;20335;-63
2022/04/13 10:44:38;;;;;;;16.00;6.93;;;16.80;48.90;;;;;;4935514;28;20224;-62
2022/04/13 10:47:36;;;;;;;10.48;7.03;;;17.00;48.40;;;;;;4956148;28;20310;-63
2022/04/13 10:50:34;;;;;;;8.85;6.38;;;17.10;48.30;;;;;;4941711;28;20252;-62
2022/04/13 10:53:26;;;;;;;8.77;6.70;;;16.60;48.90;;;;;;4946746;28;20640;-61
2022/04/13 10:56:20;;;;;;;11.90;7.03;;;17.00;49.10;;;;;;4936249;28;20579;-61
2022/04/13 10:59:16;;;;;;;10.43;6.50;;;17.10;49.10;;;;;;4937861;28;20239;-62
2022/04/13 11:02:12;;;;;;;11.50;6.13;;;16.70;47.90;;;;;;4943184;28;20855;-65
2022/04/13 11:05:01;;;;;;;9.00;6.32;;;17.80;47.40;;;;;;4941644;28;20228;-64
2022/04/13 11:08:02;;;;;;;9.85;6.97;;;17.70;47.40;;;;;;4939830;28;20233;-62
2022/04/13 11:10:52;;;;;;;11.32;7.53;;;18.60;47.60;;;;;;4922155;28;20239;-63
2022/04/13 11:13:41;;;;;;;10.55;6.70;;;18.30;46.70;;;;;;4924055;28;20232;-63
2022/04/13 11:16:29;;;;;;;9.93;6.97;;;19.20;46.30;;;;;;4927496;28;20282;-63
2022/04/13 11:19:21;;;;;;;13.35;7.82;;;20.00;43.90;;;;;;4961641;28;20278;-62
2022/04/13 11:22:14;;;;;;;9.32;5.93;;;19.20;44.30;;;;;;5009325;28;20316;-63
2022/04/13 11:25:05;;;;;;;9.23;5.80;;;18.60;44.40;;;;;;4919282;28;20274;-62
2022/04/13 11:27:54;;;;;;;8.85;5.65;;;17.40;45.60;;;;;;4973316;28;20240;-61
2022/04/13 11:31:08;;;;;;;9.65;6.07;;;16.80;46.50;;;;;;4945621;28;20232;-64
2022/04/13 11:33:59;;;;;;;11.73;6.50;;;16.40;46.20;;;;;;4935530;28;20261;-63
2022/04/13 11:36:52;;;;;;;9.98;6.47;;;16.60;47.00;;;;;;4943853;28;20224;-61
2022/04/13 11:39:49;;;;;;;9.27;6.35;;;17.30;46.70;;;;;;4945469;28;20564;-64
2022/04/13 11:42:53;;;;;;;11.18;6.07;;;18.20;45.80;;;;;;4943546;28;20228;-65
2022/04/13 11:45:53;;;;;;;13.43;8.57;;;19.50;43.60;;;;;;4952277;28;20250;-63
2022/04/13 11:48:42;;;;;;;7.82;5.80;;;19.40;42.90;;;;;;4944621;28;20242;-65
2022/04/13 11:51:32;;;;;;;12.52;5.85;;;19.50;41.90;;;;;;4966142;28;20230;-65
2022/04/13 11:54:47;;;;;;;8.45;5.68;;;19.50;41.80;;;;;;4944877;28;20239;-65
2022/04/13 11:58:19;;;;;;;11.20;6.25;;;19.00;42.50;;;;;;4936457;28;20227;-64
2022/04/13 12:01:12;;;;;;;9.10;5.78;;;18.80;43.10;;;;;;4937026;28;20602;-65
2022/04/13 12:04:05;;;;;;;7.68;6.07;;;18.60;43.50;;;;;;4941163;28;20265;-62
2022/04/13 12:06:54;;;;;;;9.32;5.90;;;18.30;44.70;;;;;;4945599;28;20681;-62
2022/04/13 12:09:44;;;;;;;11.35;6.78;;;17.40;45.60;;;;;;4936411;28;20224;-62
2022/04/13 12:12:33;;;;;;;12.38;7.15;;;17.60;46.00;;;;;;4947037;28;20227;-61
2022/04/13 12:15:23;;;;;;;11.88;6.80;;;17.50;46.10;;;;;;4941250;28;20216;-63
2022/04/13 12:18:13;;;;;;;10.38;6.18;;;17.60;46.80;;;;;;4965552;28;20686;-63
2022/04/13 12:21:12;;;;;;;15.13;6.35;;;17.80;46.00;;;;;;4940478;28;20488;-64
2022/04/13 12:24:02;;;;;;;7.55;5.47;;;18.00;44.90;;;;;;4942193;28;20231;-63
2022/04/13 12:26:51;;;;;;;8.50;6.00;;;17.70;44.40;;;;;;4962360;28;20221;-63
2022/04/13 12:29:40;;;;;;;7.28;5.50;;;17.70;44.30;;;;;;4949763;28;20239;-63
2022/04/13 12:32:30;;;;;;;7.65;5.32;;;17.70;44.20;;;;;;4941635;28;20220;-63
2022/04/13 12:35:19;;;;;;;6.07;4.63;;;17.70;43.60;;;;;;4943811;28;20231;-62
2022/04/13 12:38:07;;;;;;;7.65;5.20;;;17.60;43.50;;;;;;4947270;28;20744;-62
2022/04/13 12:41:10;;;;;;;6.85;4.57;;;17.50;42.90;;;;;;4940737;28;20255;-62
2022/04/13 12:44:04;;;;;;;8.20;4.72;;;17.50;42.60;;;;;;4942068;28;20783;-62
2022/04/13 12:47:03;;;;;;;7.55;4.93;;;17.40;41.70;;;;;;4941879;28;20228;-61
2022/04/13 12:50:02;;;;;;;7.95;5.05;;;17.20;42.60;;;;;;4941121;28;20239;-65
2022/04/13 12:52:58;;;;;;;10.50;5.63;;;17.30;42.80;;;;;;4940627;28;20233;-62
2022/04/13 13:38:32;;;;;;;8.13;5.38;;;16.70;46.40;;;;;;5037955;27;20598;-64
2022/04/13 13:51:54;;;;;;;9.13;5.57;;;16.20;43.30;;;;;;5061176;27;21112;-64
2022/04/13 13:54:42;;;;;;;9.93;5.80;;;16.30;45.90;;;;;;5077017;28;20267;-62
2022/04/13 13:57:34;;;;;;;7.78;5.78;;;16.20;47.10;;;;;;5094840;28;20231;-62
2022/04/13 14:00:23;;;;;;;9.15;5.80;;;16.40;47.50;;;;;;5080446;28;20218;-62
2022/04/13 14:03:15;;;;;;;7.05;5.38;;;16.40;48.00;;;;;;5099500;28;20234;-62
2022/04/13 14:06:04;;;;;;;9.57;5.30;;;16.40;48.50;;;;;;5094003;28;20215;-62
2022/04/13 14:08:54;;;;;;;8.75;5.78;;;16.50;48.30;;;;;;5082733;28;20218;-62
2022/04/13 14:11:42;;;;;;;8.35;5.75;;;16.60;48.50;;;;;;5093164;28;20222;-61
2022/04/13 14:14:31;;;;;;;8.57;5.55;;;16.40;49.00;;;;;;5096567;28;20226;-60
2022/04/13 14:17:19;;;;;;;9.88;6.18;;;16.50;49.10;;;;;;5086920;28;20365;-61
2022/04/13 14:20:10;;;;;;;8.00;6.10;;;16.60;48.60;;;;;;5096622;28;20304;-62
2022/04/13 14:22:59;;;;;;;7.32;5.20;;;16.40;48.90;;;;;;5097200;28;20234;-63
2022/04/13 14:25:50;;;;;;;10.30;5.97;;;16.30;48.60;;;;;;5081257;28;20223;-60
2022/04/13 14:28:38;;;;;;;8.70;5.95;;;16.30;49.10;;;;;;5086972;28;20223;-61
2022/04/13 14:31:27;;;;;;;10.38;6.10;;;16.30;49.60;;;;;;5094244;28;20250;-59
2022/04/13 14:34:17;;;;;;;13.25;8.82;;;16.40;50.20;;;;;;5095158;28;20306;-60
2022/04/13 14:37:06;;;;;;;9.50;5.93;;;16.40;50.00;;;;;;5107766;27;20226;-63
2022/04/13 14:39:55;;;;;;;9.73;6.68;;;16.50;49.60;;;;;;5112450;27;20223;-59
2022/04/13 14:42:47;;;;;;;11.75;6.00;;;16.50;49.90;;;;;;5122216;27;20218;-60
2022/04/13 14:45:36;;;;;;;9.63;6.07;;;16.50;50.20;;;;;;5115138;27;20222;-61
2022/04/13 14:48:28;;;;;;;10.50;6.43;;;16.30;51.00;;;;;;5113924;27;20562;-63
2022/04/13 14:51:17;;;;;;;9.55;6.05;;;16.30;51.30;;;;;;5114743;27;20222;-62
2022/04/13 14:54:06;;;;;;;8.57;6.05;;;15.80;51.30;;;;;;5112030;27;20214;-63
2022/04/13 14:56:55;;;;;;;10.50;6.75;;;15.80;52.20;;;;;;5113221;27;20213;-62
2022/04/13 14:59:45;;;;;;;10.07;6.25;;;16.00;52.00;;;;;;5113544;27;20242;-62
2022/04/13 17:03:30;;;;;;;12.77;7.85;;;14.30;55.60;;;;;;5012002;28;21403;-62
2022/04/13 17:06:19;;;;;;;11.95;7.30;;;14.30;56.20;;;;;;5010990;28;20218;-61
2022/04/13 17:09:08;;;;;;;12.77;7.32;;;14.10;56.30;;;;;;5015627;28;20240;-62
2022/04/13 17:11:57;;;;;;;13.70;8.05;;;14.20;56.20;;;;;;5016499;28;20708;-61
2022/04/13 17:14:49;;;;;;;13.93;7.18;;;14.20;56.40;;;;;;5012040;28;20229;-62
2022/04/13 17:17:39;;;;;;;17.25;8.23;;;14.20;56.60;;;;;;5020468;28;20221;-64
2022/04/13 17:20:29;;;;;;;14.20;8.35;;;14.00;57.00;;;;;;5023533;28;20312;-62
2022/04/13 17:23:18;;;;;;;10.95;7.45;;;13.90;57.30;;;;;;5012178;28;20234;-63
2022/04/13 17:26:07;;;;;;;13.30;7.47;;;13.90;57.60;;;;;;5013501;28;20231;-62
2022/04/13 17:28:56;;;;;;;15.13;7.40;;;13.80;58.40;;;;;;5021632;28;20788;-61
2022/04/13 17:31:44;;;;;;;14.73;7.53;;;13.90;58.20;;;;;;5052347;28;20229;-60
2022/04/13 17:34:33;;;;;;;15.73;7.70;;;13.80;58.20;;;;;;5029428;28;20301;-62
2022/04/13 17:37:24;;;;;;;14.65;7.75;;;13.70;58.50;;;;;;5029652;28;20479;-62
2022/04/13 17:40:13;;;;;;;13.93;7.45;;;13.60;58.80;;;;;;5026259;28;20299;-62
2022/04/13 17:43:02;;;;;;;13.65;7.68;;;13.50;59.20;;;;;;5027633;28;20225;-61
2022/04/13 17:45:51;;;;;;;13.73;7.50;;;13.50;59.40;;;;;;5028404;28;20383;-61
2022/04/13 17:48:41;;;;;;;16.00;6.78;;;13.50;59.60;;;;;;5027738;28;20755;-62
2022/04/13 17:51:30;;;;;;;13.27;7.40;;;13.40;59.70;;;;;;5027964;28;20225;-64
2022/04/13 17:54:21;;;;;;;14.20;7.22;;;13.40;59.70;;;;;;5032624;28;20221;-62
2022/04/13 17:57:10;;;;;;;15.77;7.38;;;13.30;59.80;;;;;;5029056;28;20217;-62
2022/04/13 17:59:58;;;;;;;13.40;7.20;;;13.30;60.10;;;;;;5028269;28;20222;-61
2022/04/13 18:02:47;;;;;;;13.50;7.22;;;13.30;60.10;;;;;;5047883;28;20235;-61
2022/04/13 18:05:36;;;;;;;19.88;7.88;;;13.30;60.30;;;;;;5064674;28;20346;-58
2022/04/13 18:08:25;;;;;;;12.55;7.63;;;13.30;60.30;;;;;;5037881;28;20235;-61
2022/04/13 18:11:15;;;;;;;14.00;8.20;;;13.30;60.60;;;;;;5041775;28;20282;-58
2022/04/13 18:14:04;;;;;;;17.58;8.70;;;13.20;61.00;;;;;;5054751;28;20222;-61
2022/04/13 18:16:52;;;;;;;20.92;10.05;;;13.20;61.00;;;;;;5051555;28;20225;-62
2022/04/13 18:19:41;;;;;;;21.85;11.15;;;13.20;61.40;;;;;;5030390;28;20764;-61
2022/04/13 18:22:30;;;;;;;21.63;11.52;;;13.20;61.40;;;;;;5031559;28;20224;-63
2022/04/13 18:25:19;;;;;;;23.05;12.07;;;13.20;61.30;;;;;;5040622;28;20232;-58
2022/04/13 18:28:09;;;;;;;22.27;12.02;;;13.20;61.40;;;;;;5025502;28;20232;-61
2022/04/13 18:30:58;;;;;;;24.60;11.52;;;13.10;61.70;;;;;;5040215;28;20225;-61
2022/04/13 18:33:47;;;;;;;18.55;11.13;;;13.10;61.60;;;;;;5029005;28;20225;-60
2022/04/13 18:36:36;;;;;;;20.25;11.73;;;13.00;62.00;;;;;;5021882;28;20226;-58
2022/04/13 18:39:25;;;;;;;24.40;11.13;;;13.00;62.30;;;;;;5047712;28;20225;-60
2022/04/13 18:42:13;;;;;;;21.98;11.13;;;13.00;62.30;;;;;;5035538;28;21118;-60
2022/04/13 18:45:05;;;;;;;18.42;10.43;;;13.00;62.30;;;;;;5037976;28;21019;-61
2022/04/13 18:47:54;;;;;;;23.13;10.48;;;13.00;62.30;;;;;;5038386;28;20797;-63
2022/04/13 18:50:43;;;;;;;21.80;11.52;;;12.90;62.50;;;;;;5035220;28;20221;-62
2022/04/13 18:53:31;;;;;;;20.42;11.15;;;12.90;63.00;;;;;;5033460;28;20229;-60
2022/04/13 18:56:20;;;;;;;20.63;11.07;;;12.70;63.10;;;;;;5035273;28;20221;-62
2022/04/13 18:59:09;;;;;;;21.50;10.85;;;12.80;63.20;;;;;;5038741;28;20286;-61